createdAt,value
2022-08-16T00:07:11.908Z,20.75
2022-08-16T00:17:56.724Z,20.69
2022-08-16T00:28:27.063Z,20.49
2022-08-16T00:38:58.803Z,20.32
2022-08-16T00:49:39.510Z,20.22
2022-08-16T01:00:20.029Z,20.22
2022-08-16T01:10:53.545Z,20.14
2022-08-16T01:21:33.447Z,20.11
2022-08-16T01:32:03.938Z,20.06
2022-08-16T01:42:42.328Z,20.00
2022-08-16T01:53:11.948Z,19.86
2022-08-16T02:03:41.560Z,19.52
2022-08-16T02:14:18.605Z,19.57
2022-08-16T02:24:50.514Z,19.58
2022-08-16T02:35:23.276Z,19.59
2022-08-16T02:45:52.547Z,19.60
2022-08-16T02:56:22.912Z,19.47
2022-08-16T03:06:56.329Z,19.45
2022-08-16T03:17:32.379Z,19.43
2022-08-16T03:28:01.438Z,19.46
2022-08-16T03:38:34.358Z,18.94
2022-08-16T03:49:04.711Z,18.62
2022-08-16T03:59:33.936Z,18.65
2022-08-16T04:10:36.023Z,18.75
2022-08-16T04:20:51.758Z,18.84
2022-08-16T04:31:21.055Z,18.90
2022-08-16T04:41:49.959Z,18.83
2022-08-16T04:52:33.644Z,18.70
2022-08-16T05:03:07.529Z,18.76
2022-08-16T05:13:42.127Z,18.97
2022-08-16T05:24:11.670Z,19.39
2022-08-16T05:34:40.513Z,20.12
2022-08-16T05:45:11.085Z,20.82
2022-08-16T05:55:40.767Z,21.62
2022-08-16T06:06:10.349Z,22.39
2022-08-16T06:16:39.340Z,23.20
2022-08-16T06:27:08.921Z,23.99
2022-08-16T06:37:37.819Z,24.54
2022-08-16T06:48:07.978Z,25.12
2022-08-16T06:58:37.868Z,25.40
2022-08-16T07:09:09.689Z,25.86
2022-08-16T07:20:03.778Z,26.22
2022-08-16T07:30:39.673Z,26.46
2022-08-16T07:41:14.519Z,26.69
2022-08-16T07:51:44.868Z,26.98
2022-08-16T08:02:14.459Z,27.16
2022-08-16T08:12:51.871Z,27.39
2022-08-16T08:23:27.966Z,27.66
2022-08-16T08:34:00.146Z,27.88
2022-08-16T08:44:30.968Z,27.94
2022-08-16T08:55:01.570Z,27.94
2022-08-16T09:05:35.733Z,28.04
2022-08-16T09:16:07.206Z,28.05
2022-08-16T09:26:44.651Z,28.13
2022-08-16T09:37:18.117Z,28.25
2022-08-16T09:47:57.170Z,28.38
2022-08-16T09:58:41.614Z,28.32
2022-08-16T10:09:19.478Z,28.38
2022-08-16T10:19:50.242Z,28.43
2022-08-16T10:30:25.848Z,28.51
2022-08-16T10:40:57.425Z,28.49
2022-08-16T10:51:34.653Z,28.48
2022-08-16T11:02:58.664Z,28.58
2022-08-16T11:24:00.000Z,28.63
2022-08-16T11:34:50.293Z,28.70
2022-08-16T11:45:18.161Z,28.85
2022-08-16T11:55:54.502Z,29.01
2022-08-16T12:06:30.702Z,29.11
2022-08-16T12:17:02.548Z,29.13
2022-08-16T12:27:31.941Z,29.11
2022-08-16T12:38:08.690Z,28.93
2022-08-16T12:49:00.369Z,29.07
2022-08-16T12:59:35.115Z,29.12
2022-08-16T13:10:21.048Z,29.21
2022-08-16T13:21:03.505Z,29.32
2022-08-16T13:31:32.447Z,29.35
2022-08-16T13:42:03.482Z,29.39
2022-08-16T13:52:34.199Z,29.46
2022-08-16T14:03:09.251Z,29.14
2022-08-16T14:13:40.118Z,28.82
2022-08-16T14:24:22.361Z,28.66
2022-08-16T14:35:00.138Z,28.61
2022-08-16T14:45:30.770Z,28.72
2022-08-16T14:55:59.799Z,28.83
2022-08-16T15:06:30.109Z,28.84
2022-08-16T15:16:59.656Z,28.77
2022-08-16T15:27:35.676Z,28.74
2022-08-16T15:38:09.122Z,28.65
2022-08-16T15:48:40.208Z,28.43
2022-08-16T15:59:10.521Z,28.23
2022-08-16T16:09:39.921Z,28.02
2022-08-16T16:20:14.843Z,27.91
2022-08-16T16:30:45.220Z,27.67
2022-08-16T16:41:16.829Z,27.49
2022-08-16T16:51:49.923Z,27.38
2022-08-16T17:02:41.405Z,27.19
2022-08-16T17:13:08.269Z,27.12
2022-08-16T17:23:58.339Z,27.01
2022-08-16T17:34:30.848Z,26.89
2022-08-16T17:45:00.161Z,26.74
2022-08-16T17:55:31.954Z,26.65
2022-08-16T18:06:00.935Z,26.45
2022-08-16T18:16:29.834Z,26.25
2022-08-16T18:27:25.263Z,26.09
2022-08-16T18:37:48.399Z,25.90
2022-08-16T18:48:18.480Z,25.67
2022-08-16T18:58:47.726Z,25.50
2022-08-16T19:09:17.416Z,25.27
2022-08-16T19:19:46.936Z,25.09
2022-08-16T19:30:17.412Z,24.93
2022-08-16T19:40:46.436Z,24.70
2022-08-16T19:51:17.084Z,24.47
2022-08-16T20:01:46.983Z,24.33
2022-08-16T20:12:19.946Z,24.15
2022-08-16T20:22:53.976Z,24.06
2022-08-16T20:33:23.359Z,23.90
2022-08-16T20:43:52.344Z,23.75
2022-08-16T20:54:24.222Z,23.60
2022-08-16T21:04:53.314Z,23.53
2022-08-16T21:15:22.503Z,23.42
2022-08-16T21:25:58.312Z,23.20
2022-08-16T21:36:35.081Z,23.11
2022-08-16T21:47:05.092Z,22.97
2022-08-16T21:57:36.420Z,22.93
2022-08-16T22:08:05.865Z,22.81
2022-08-16T22:18:34.839Z,22.67
2022-08-16T22:29:06.199Z,22.63
2022-08-16T22:39:35.201Z,22.49
2022-08-16T22:50:04.204Z,22.44
2022-08-16T23:00:35.611Z,22.31
2022-08-16T23:11:05.936Z,22.19
2022-08-16T23:21:35.776Z,22.08
2022-08-16T23:32:13.868Z,21.96
2022-08-16T23:42:56.644Z,21.91
2022-08-16T23:53:27.403Z,21.82
